createdAt,value
2022-11-21T00:00:53.512Z,97533.69
2022-11-21T00:03:20.139Z,97531.72
2022-11-21T00:05:47.404Z,97537.22
2022-11-21T00:08:15.139Z,97518.69
2022-11-21T00:10:42.377Z,97513.31
2022-11-21T00:13:12.528Z,97527.22
2022-11-21T00:15:39.082Z,97522.63
2022-11-21T00:18:05.653Z,97523.94
2022-11-21T00:20:32.864Z,97525.13
2022-11-21T00:22:59.380Z,97520.63
2022-11-21T00:25:25.948Z,97509.44
2022-11-21T00:27:52.642Z,97506.97
2022-11-21T00:30:19.255Z,97505.84
2022-11-21T00:32:45.782Z,97512.19
2022-11-21T00:35:13.254Z,97506.34
2022-11-21T00:37:41.014Z,97504.47
2022-11-21T00:40:07.863Z,97513.63
2022-11-21T00:42:34.471Z,97509.06
2022-11-21T00:45:01.073Z,97483.50
2022-11-21T00:47:27.562Z,97485.78
2022-11-21T00:49:54.063Z,97488.19
2022-11-21T00:52:20.594Z,97482.56
2022-11-21T00:54:47.684Z,97471.44
2022-11-21T00:57:14.250Z,97471.47
2022-11-21T00:59:41.254Z,97470.13
2022-11-21T01:02:07.792Z,97462.53
2022-11-21T01:04:34.578Z,97462.41
2022-11-21T01:07:01.255Z,97462.16
2022-11-21T01:09:28.831Z,97459.91
2022-11-21T01:11:57.766Z,97461.19
2022-11-21T01:14:28.902Z,97470.72
2022-11-21T01:16:55.910Z,97480.84
2022-11-21T01:19:23.561Z,97473.34
2022-11-21T01:21:50.587Z,97461.34
2022-11-21T01:24:17.438Z,97470.97
2022-11-21T01:26:44.053Z,97463.09
2022-11-21T01:29:10.851Z,97461.81
2022-11-21T01:31:42.827Z,97454.59
2022-11-21T01:34:11.635Z,97464.44
2022-11-21T01:36:40.347Z,97463.44
2022-11-21T01:39:07.335Z,97473.44
2022-11-21T01:41:38.745Z,97455.25
2022-11-21T01:44:23.696Z,97455.94
2022-11-21T01:46:50.619Z,97457.81
2022-11-21T01:49:17.161Z,97449.88
2022-11-21T01:51:50.847Z,97459.41
2022-11-21T01:54:17.381Z,97450.25
2022-11-21T01:56:48.335Z,97444.44
2022-11-21T01:59:17.034Z,97453.38
2022-11-21T02:01:43.976Z,97449.94
2022-11-21T02:04:10.521Z,97448.81
2022-11-21T02:06:37.871Z,97452.44
2022-11-21T02:09:04.855Z,97453.31
2022-11-21T02:11:50.072Z,97458.94
2022-11-21T02:14:16.804Z,97452.13
2022-11-21T02:16:44.195Z,97451.06
2022-11-21T02:19:13.173Z,97445.88
2022-11-21T02:21:44.516Z,97449.94
2022-11-21T02:24:16.909Z,97451.06
2022-11-21T02:26:43.637Z,97458.56
2022-11-21T02:29:10.671Z,97457.69
2022-11-21T02:31:37.951Z,97448.94
2022-11-21T02:34:04.727Z,97449.41
2022-11-21T02:36:42.810Z,97455.69
2022-11-21T02:39:10.910Z,97445.31
2022-11-21T02:41:38.029Z,97433.34
2022-11-21T02:44:30.964Z,97432.31
2022-11-21T02:46:57.566Z,97427.63
2022-11-21T02:49:46.467Z,97425.09
2022-11-21T02:52:12.935Z,97434.03
2022-11-21T02:54:39.409Z,97428.94
2022-11-21T02:57:05.902Z,97427.66
2022-11-21T02:59:32.382Z,97417.25
2022-11-21T03:02:02.758Z,97421.66
2022-11-21T03:04:29.685Z,97421.72
2022-11-21T03:06:56.471Z,97428.81
2022-11-21T03:09:23.017Z,97419.41
2022-11-21T03:11:49.675Z,97414.59
2022-11-21T03:14:16.184Z,97414.53
2022-11-21T03:16:42.753Z,97406.66
2022-11-21T03:19:09.293Z,97401.88
2022-11-21T03:21:36.279Z,97403.59
2022-11-21T03:24:03.209Z,97400.53
2022-11-21T03:26:29.741Z,97397.56
2022-11-21T03:28:56.227Z,97400.53
2022-11-21T03:31:22.775Z,97396.44
2022-11-21T03:33:49.317Z,97397.97
2022-11-21T03:36:16.140Z,97401.31
2022-11-21T03:38:42.732Z,97390.44
2022-11-21T03:41:29.346Z,97390.16
2022-11-21T03:43:56.573Z,97400.94
2022-11-21T03:46:23.316Z,97402.38
2022-11-21T03:48:49.803Z,97390.41
2022-11-21T03:51:16.293Z,97387.84
2022-11-21T03:53:42.916Z,97390.69
2022-11-21T03:56:09.426Z,97386.75
2022-11-21T03:58:36.073Z,97386.94
2022-11-21T04:01:03.093Z,97394.00
2022-11-21T04:03:30.142Z,97394.59
2022-11-21T04:05:56.626Z,97392.69
2022-11-21T04:08:23.195Z,97398.84
2022-11-21T04:10:50.290Z,97390.16
2022-11-21T04:13:17.071Z,97392.84
2022-11-21T04:15:43.767Z,97390.50
2022-11-21T04:18:10.352Z,97378.72
2022-11-21T04:20:37.124Z,97386.69
2022-11-21T04:23:16.276Z,97382.41
2022-11-21T04:25:43.353Z,97380.44
2022-11-21T04:28:12.541Z,97384.94
2022-11-21T04:30:39.591Z,97384.03
2022-11-21T04:33:06.123Z,97373.38
2022-11-21T04:35:32.726Z,97371.88
2022-11-21T04:37:59.202Z,97369.28
2022-11-21T04:40:25.749Z,97370.16
2022-11-21T04:42:52.320Z,97371.66
2022-11-21T04:45:18.814Z,97375.44
2022-11-21T04:47:46.464Z,97378.53
2022-11-21T04:50:14.390Z,97372.59
2022-11-21T04:52:41.397Z,97374.41
2022-11-21T04:55:08.879Z,97371.00
2022-11-21T04:57:35.589Z,97363.09
2022-11-21T05:00:02.156Z,97373.34
2022-11-21T05:02:28.646Z,97371.00
2022-11-21T05:04:55.211Z,97379.88
2022-11-21T05:07:21.810Z,97381.09
2022-11-21T05:09:48.423Z,97388.47
2022-11-21T05:12:33.370Z,97384.06
2022-11-21T05:14:59.902Z,97378.31
2022-11-21T05:17:27.801Z,97381.00
2022-11-21T05:19:54.295Z,97377.72
2022-11-21T05:22:20.816Z,97373.50
2022-11-21T05:24:47.398Z,97379.81
2022-11-21T05:27:13.896Z,97377.34
2022-11-21T05:29:40.447Z,97387.50
2022-11-21T05:32:06.978Z,97386.16
2022-11-21T05:34:33.631Z,97382.59
2022-11-21T05:37:00.175Z,97393.63
2022-11-21T05:39:26.904Z,97398.03
2022-11-21T05:41:57.236Z,97397.78
2022-11-21T05:44:28.324Z,97400.06
2022-11-21T05:46:54.999Z,97404.53
2022-11-21T05:49:21.626Z,97396.78
2022-11-21T05:51:48.144Z,97404.16
2022-11-21T05:54:15.054Z,97400.09
2022-11-21T05:56:41.571Z,97399.59
2022-11-21T05:59:08.702Z,97403.41
2022-11-21T06:01:53.770Z,97394.88
2022-11-21T06:04:20.483Z,97400.25
2022-11-21T06:06:47.055Z,97400.06
2022-11-21T06:09:14.099Z,97399.72
2022-11-21T06:11:40.624Z,97398.91
2022-11-21T06:14:07.144Z,97403.16
2022-11-21T06:16:33.602Z,97399.53
2022-11-21T06:19:00.091Z,97396.41
2022-11-21T06:21:28.857Z,97397.72
2022-11-21T06:23:56.043Z,97397.25
2022-11-21T06:26:24.029Z,97387.34
2022-11-21T06:28:50.718Z,97397.88
2022-11-21T06:31:19.127Z,97397.03
2022-11-21T06:33:45.882Z,97402.13
2022-11-21T06:36:14.057Z,97397.91
2022-11-21T06:38:40.642Z,97404.66
2022-11-21T06:41:08.569Z,97403.97
2022-11-21T06:43:35.183Z,97399.38
2022-11-21T06:46:04.107Z,97401.69
2022-11-21T06:48:31.546Z,97405.91
2022-11-21T06:50:58.595Z,97417.56
2022-11-21T06:53:25.075Z,97404.25
2022-11-21T06:55:51.617Z,97415.50
2022-11-21T06:58:18.197Z,97409.06
2022-11-21T07:00:44.694Z,97414.69
2022-11-21T07:03:11.218Z,97417.78
2022-11-21T07:05:37.796Z,97417.44
2022-11-21T07:08:07.978Z,97416.53
2022-11-21T07:10:42.521Z,97416.63
2022-11-21T07:13:21.561Z,97417.44
2022-11-21T07:15:49.569Z,97411.69
2022-11-21T07:18:16.052Z,97411.38
2022-11-21T07:20:42.625Z,97410.00
2022-11-21T07:23:09.498Z,97410.13
2022-11-21T07:25:36.935Z,97400.97
2022-11-21T07:28:04.352Z,97408.91
2022-11-21T07:30:31.006Z,97409.91
2022-11-21T07:33:01.199Z,97402.25
2022-11-21T07:35:27.808Z,97398.34
2022-11-21T07:37:54.468Z,97400.84
2022-11-21T07:40:21.111Z,97405.47
2022-11-21T07:42:47.862Z,97404.75
2022-11-21T07:45:14.917Z,97410.25
2022-11-21T07:47:41.692Z,97408.94
2022-11-21T07:50:08.917Z,97413.88
2022-11-21T07:52:35.984Z,97418.19
2022-11-21T07:55:03.757Z,97412.00
2022-11-21T07:57:30.940Z,97418.69
2022-11-21T07:59:57.435Z,97416.50
2022-11-21T08:02:26.994Z,97415.53
2022-11-21T08:04:53.691Z,97420.88
2022-11-21T08:07:20.900Z,97414.97
2022-11-21T08:09:47.488Z,97423.53
2022-11-21T08:12:14.175Z,97430.75
2022-11-21T08:14:40.767Z,97426.38
2022-11-21T08:17:07.507Z,97426.84
2022-11-21T08:19:34.297Z,97426.38
2022-11-21T08:22:00.952Z,97420.66
2022-11-21T08:24:27.550Z,97417.72
2022-11-21T08:26:54.066Z,97411.88
2022-11-21T08:29:20.641Z,97405.66
2022-11-21T08:31:47.211Z,97406.69
2022-11-21T08:34:14.791Z,97407.31
2022-11-21T08:36:41.387Z,97409.47
2022-11-21T08:39:07.869Z,97408.84
2022-11-21T08:41:52.709Z,97415.22
2022-11-21T08:44:19.278Z,97405.88
2022-11-21T08:46:46.343Z,97404.25
2022-11-21T08:49:12.837Z,97411.66
2022-11-21T08:51:39.980Z,97407.38
2022-11-21T08:54:06.649Z,97405.41
2022-11-21T08:56:33.154Z,97405.75
2022-11-21T08:58:59.702Z,97403.59
2022-11-21T09:01:26.279Z,97401.78
2022-11-21T09:03:52.882Z,97399.00
2022-11-21T09:06:19.422Z,97400.00
2022-11-21T09:08:47.056Z,97404.59
2022-11-21T09:11:13.617Z,97402.13
2022-11-21T09:13:40.200Z,97395.19
2022-11-21T09:16:25.246Z,97385.94
2022-11-21T09:18:52.264Z,97381.13
2022-11-21T09:21:19.253Z,97378.69
2022-11-21T09:23:46.916Z,97385.38
2022-11-21T09:26:13.859Z,97380.75
2022-11-21T09:28:41.353Z,97379.72
2022-11-21T09:31:07.983Z,97375.94
2022-11-21T09:33:34.442Z,97378.22
2022-11-21T09:36:01.072Z,97369.03
2022-11-21T09:38:27.776Z,97382.59
2022-11-21T09:41:00.548Z,97371.91
2022-11-21T09:43:36.375Z,97380.94
2022-11-21T09:46:02.890Z,97379.47
2022-11-21T09:48:30.759Z,97379.63
2022-11-21T09:50:59.274Z,97383.50
2022-11-21T09:53:27.684Z,97378.88
2022-11-21T09:56:07.465Z,97379.31
2022-11-21T09:58:34.053Z,97369.13
2022-11-21T10:01:00.703Z,97357.38
2022-11-21T10:03:29.416Z,97351.97
2022-11-21T10:06:07.038Z,97351.38
2022-11-21T10:08:52.484Z,97344.03
2022-11-21T10:11:25.641Z,97335.00
2022-11-21T10:14:04.516Z,97330.31
2022-11-21T10:16:44.778Z,97330.38
2022-11-21T10:19:26.590Z,97321.78
2022-11-21T10:21:59.644Z,97315.41
2022-11-21T10:24:36.178Z,97320.09
2022-11-21T10:27:03.731Z,97304.94
2022-11-21T10:29:38.027Z,97297.84
2022-11-21T10:32:13.369Z,97294.41
2022-11-21T10:34:39.926Z,97282.88
2022-11-21T10:37:16.701Z,97279.06
2022-11-21T10:39:44.314Z,97272.34
2022-11-21T10:42:26.151Z,97276.63
2022-11-21T10:45:11.205Z,97271.13
2022-11-21T10:47:37.956Z,97270.88
2022-11-21T10:50:10.745Z,97255.44
2022-11-21T10:52:43.263Z,97253.03
2022-11-21T10:55:11.338Z,97245.50
2022-11-21T10:57:48.100Z,97246.84
2022-11-21T11:00:15.212Z,97243.63
2022-11-21T11:02:57.056Z,97241.78
2022-11-21T11:05:25.018Z,97234.22
2022-11-21T11:08:08.344Z,97249.00
2022-11-21T11:10:36.346Z,97244.22
2022-11-21T11:13:45.164Z,97244.34
2022-11-21T11:16:11.124Z,97249.66
2022-11-21T11:18:38.448Z,97235.25
2022-11-21T11:21:21.654Z,97223.66
2022-11-21T11:23:51.612Z,97224.94
2022-11-21T11:26:28.204Z,97219.69
2022-11-21T11:29:14.440Z,97215.63
2022-11-21T11:31:45.981Z,97200.25
2022-11-21T11:34:14.070Z,97199.00
2022-11-21T11:36:54.383Z,97187.78
2022-11-21T11:39:40.419Z,97189.03
2022-11-21T11:42:37.991Z,97184.63
2022-11-21T11:45:26.617Z,97174.03
2022-11-21T11:47:55.209Z,97174.91
2022-11-21T11:50:32.000Z,97172.16
2022-11-21T11:53:07.075Z,97162.53
2022-11-21T11:55:36.625Z,97161.56
2022-11-21T11:58:03.842Z,97156.91
2022-11-21T12:00:32.667Z,97154.72
2022-11-21T12:03:02.276Z,97153.84
2022-11-21T12:05:28.989Z,97141.13
2022-11-21T12:11:12.507Z,97139.75
2022-11-21T12:13:39.440Z,97124.09
2022-11-21T12:16:13.220Z,97132.34
2022-11-21T12:18:44.352Z,97123.97
2022-11-21T12:21:20.671Z,97116.00
2022-11-21T12:23:51.217Z,97115.75
2022-11-21T12:26:20.734Z,97108.69
2022-11-21T12:28:54.828Z,97100.00
2022-11-21T12:31:40.054Z,97103.75
2022-11-21T12:34:23.585Z,97094.13
2022-11-21T12:36:53.734Z,97092.53
2022-11-21T12:39:20.247Z,97094.44
2022-11-21T12:42:14.841Z,97087.53
2022-11-21T12:44:50.504Z,97079.66
2022-11-21T12:48:00.564Z,97072.97
2022-11-21T12:50:54.191Z,97071.59
2022-11-21T12:53:41.864Z,97055.19
2022-11-21T12:56:11.450Z,97055.53
2022-11-21T12:58:39.511Z,97046.81
2022-11-21T13:01:19.699Z,97037.59
2022-11-21T13:03:55.540Z,97034.13
2022-11-21T13:06:28.856Z,97022.38
2022-11-21T13:08:56.127Z,97023.88
2022-11-21T13:11:47.032Z,97014.41
2022-11-21T13:14:22.799Z,97002.47
2022-11-21T13:16:58.595Z,96993.34
2022-11-21T13:19:25.128Z,96984.09
2022-11-21T13:21:53.774Z,96991.19
2022-11-21T13:24:38.938Z,96981.03
2022-11-21T13:27:07.192Z,96982.88
2022-11-21T13:29:33.768Z,96981.88
2022-11-21T13:32:05.823Z,96977.41
2022-11-21T13:34:32.458Z,96974.22
2022-11-21T13:36:59.053Z,96976.66
2022-11-21T13:39:27.089Z,96975.78
2022-11-21T13:42:20.502Z,96977.16
2022-11-21T13:44:47.728Z,96967.06
2022-11-21T13:47:26.589Z,96963.44
2022-11-21T13:49:53.236Z,96957.69
2022-11-21T13:52:20.124Z,96955.13
2022-11-21T13:54:55.518Z,96953.75
2022-11-21T13:57:31.098Z,96940.97
2022-11-21T13:59:57.695Z,96938.28
2022-11-21T14:02:27.189Z,96941.56
2022-11-21T14:05:12.610Z,96938.91
2022-11-21T14:07:39.870Z,96940.59
2022-11-21T14:10:17.994Z,96939.91
2022-11-21T14:12:47.159Z,96928.13
2022-11-21T14:15:32.612Z,96922.28
2022-11-21T14:17:59.379Z,96910.56
2022-11-21T14:20:27.847Z,96907.69
2022-11-21T14:22:54.653Z,96897.44
2022-11-21T14:25:26.364Z,96903.16
2022-11-21T14:27:53.398Z,96904.03
2022-11-21T14:30:32.242Z,96906.97
2022-11-21T14:33:17.730Z,96904.16
2022-11-21T14:35:47.477Z,96898.81
2022-11-21T14:38:14.044Z,96894.72
2022-11-21T14:40:40.628Z,96888.97
2022-11-21T14:43:25.946Z,96887.06
2022-11-21T14:45:52.657Z,96885.88
2022-11-21T14:48:25.148Z,96884.94
2022-11-21T14:50:51.821Z,96883.78
2022-11-21T14:53:18.406Z,96877.59
2022-11-21T14:55:49.365Z,96859.84
2022-11-21T14:58:15.922Z,96850.84
2022-11-21T15:03:29.242Z,96849.75
2022-11-21T15:06:05.822Z,96837.84
2022-11-21T15:09:03.249Z,96839.59
2022-11-21T15:11:20.104Z,96831.38
2022-11-21T15:16:34.356Z,96790.63
2022-11-21T15:19:01.010Z,96787.75
2022-11-21T15:21:27.570Z,96776.00
2022-11-21T15:23:55.089Z,96779.28
2022-11-21T15:26:32.189Z,96772.56
2022-11-21T15:29:00.675Z,96765.84
2022-11-21T15:31:27.671Z,96753.91
2022-11-21T15:36:45.124Z,96748.75
2022-11-21T15:39:21.985Z,96736.47
2022-11-21T15:41:48.676Z,96728.13
2022-11-21T15:44:19.551Z,96730.00
2022-11-21T15:46:47.207Z,96726.91
2022-11-21T15:49:32.036Z,96721.81
2022-11-21T15:52:07.721Z,96706.09
2022-11-21T15:54:47.355Z,96707.09
2022-11-21T15:57:16.657Z,96692.50
2022-11-21T15:59:43.875Z,96689.22
2022-11-21T16:02:12.359Z,96686.94
2022-11-21T16:04:39.000Z,96689.38
2022-11-21T16:07:05.708Z,96686.56
2022-11-21T16:09:32.442Z,96675.34
2022-11-21T16:11:59.089Z,96674.50
2022-11-21T16:14:26.275Z,96665.78
2022-11-21T16:16:53.021Z,96664.25
2022-11-21T16:19:19.585Z,96663.13
2022-11-21T16:21:46.232Z,96665.75
2022-11-21T16:24:12.732Z,96649.50
2022-11-21T16:26:39.430Z,96649.97
2022-11-21T16:29:06.408Z,96642.53
2022-11-21T16:31:33.069Z,96638.22
2022-11-21T16:34:00.673Z,96634.06
2022-11-21T16:36:28.431Z,96622.00
2022-11-21T16:38:55.025Z,96612.66
2022-11-21T16:41:22.594Z,96616.25
2022-11-21T16:43:50.208Z,96611.00
2022-11-21T16:46:17.016Z,96605.00
2022-11-21T16:48:43.571Z,96590.31
2022-11-21T16:51:10.591Z,96582.16
2022-11-21T16:53:37.433Z,96588.47
2022-11-21T16:56:03.956Z,96595.88
2022-11-21T16:58:30.517Z,96595.97
2022-11-21T17:00:57.069Z,96607.25
2022-11-21T17:03:23.653Z,96607.50
2022-11-21T17:05:59.779Z,96592.81
2022-11-21T17:08:28.034Z,96596.91
2022-11-21T17:10:54.688Z,96597.91
2022-11-21T17:13:21.932Z,96591.25
2022-11-21T17:15:48.723Z,96588.72
2022-11-21T17:18:15.293Z,96577.34
2022-11-21T17:20:41.855Z,96572.88
2022-11-21T17:23:08.373Z,96566.16
2022-11-21T17:25:34.908Z,96556.34
2022-11-21T17:28:01.406Z,96562.59
2022-11-21T17:30:28.428Z,96559.22
2022-11-21T17:32:55.343Z,96557.88
2022-11-21T17:35:21.844Z,96550.97
2022-11-21T17:37:48.353Z,96539.28
2022-11-21T17:40:14.875Z,96542.63
2022-11-21T17:42:43.346Z,96546.31
2022-11-21T17:45:10.054Z,96563.97
2022-11-21T17:47:36.608Z,96548.16
2022-11-21T17:50:06.195Z,96530.97
2022-11-21T17:52:32.978Z,96512.72
2022-11-21T17:54:59.553Z,96498.03
2022-11-21T17:57:26.335Z,96490.69
2022-11-21T17:59:52.991Z,96507.66
2022-11-21T18:02:21.805Z,96526.66
2022-11-21T18:04:48.910Z,96526.22
2022-11-21T18:07:15.543Z,96527.25
2022-11-21T18:09:42.044Z,96518.28
2022-11-21T18:12:08.533Z,96514.09
2022-11-21T18:14:35.020Z,96519.16
2022-11-21T18:17:01.544Z,96515.84
2022-11-21T18:19:28.311Z,96499.22
2022-11-21T18:21:54.980Z,96488.28
2022-11-21T18:24:21.546Z,96496.91
2022-11-21T18:26:48.107Z,96488.41
2022-11-21T18:32:01.291Z,96492.59
2022-11-21T18:34:28.312Z,96486.59
2022-11-21T18:36:54.795Z,96484.53
2022-11-21T18:39:24.964Z,96487.59
2022-11-21T18:41:51.672Z,96486.88
2022-11-21T18:44:22.248Z,96494.50
2022-11-21T18:46:49.434Z,96488.09
2022-11-21T18:49:16.005Z,96489.63
2022-11-21T18:51:42.488Z,96484.28
2022-11-21T18:54:11.180Z,96481.13
2022-11-21T18:56:38.239Z,96482.28
2022-11-21T18:59:06.458Z,96476.19
2022-11-21T19:01:34.241Z,96481.03
2022-11-21T19:04:00.861Z,96476.56
2022-11-21T19:06:27.538Z,96465.41
2022-11-21T19:08:54.741Z,96474.88
2022-11-21T19:11:22.265Z,96471.22
2022-11-21T19:13:48.962Z,96475.84
2022-11-21T19:16:19.987Z,96471.22
2022-11-21T19:19:05.528Z,96460.69
2022-11-21T19:21:35.457Z,96451.72
2022-11-21T19:24:03.092Z,96454.19
2022-11-21T19:26:30.814Z,96457.09
2022-11-21T19:28:57.558Z,96452.53
2022-11-21T19:31:24.114Z,96452.09
2022-11-21T19:33:50.933Z,96451.09
2022-11-21T19:36:18.410Z,96439.13
2022-11-21T19:38:50.424Z,96441.50
2022-11-21T19:41:20.889Z,96435.75
2022-11-21T19:43:47.509Z,96431.13
2022-11-21T19:46:14.701Z,96434.22
2022-11-21T19:48:41.656Z,96425.34
2022-11-21T19:51:08.457Z,96429.16
2022-11-21T19:53:35.877Z,96418.91
2022-11-21T19:56:11.958Z,96422.34
2022-11-21T19:58:39.723Z,96425.16
2022-11-21T20:01:09.683Z,96415.47
2022-11-21T20:03:36.987Z,96420.28
2022-11-21T20:06:04.278Z,96420.72
2022-11-21T20:08:30.806Z,96419.63
2022-11-21T20:11:12.175Z,96419.63
2022-11-21T20:13:39.910Z,96423.06
2022-11-21T20:16:08.541Z,96413.34
2022-11-21T20:18:35.959Z,96419.44
2022-11-21T20:21:09.269Z,96412.88
2022-11-21T20:23:36.058Z,96409.19
2022-11-21T20:26:02.681Z,96420.22
2022-11-21T20:28:29.168Z,96420.06
2022-11-21T20:30:55.675Z,96417.06
2022-11-21T20:33:22.170Z,96418.03
2022-11-21T20:35:48.678Z,96423.19
2022-11-21T20:38:18.897Z,96427.47
2022-11-21T20:40:52.246Z,96421.03
2022-11-21T20:43:18.767Z,96432.09
2022-11-21T20:48:33.379Z,96433.19
2022-11-21T20:52:49.806Z,96433.53
2022-11-21T20:54:40.237Z,96432.09
2022-11-21T20:57:14.482Z,96442.72
2022-11-21T21:00:06.155Z,96434.28
2022-11-21T21:02:33.344Z,96431.56
2022-11-21T21:05:01.156Z,96427.69
2022-11-21T21:07:27.764Z,96423.16
2022-11-21T21:09:55.939Z,96421.97
2022-11-21T21:12:23.986Z,96414.19
2022-11-21T21:14:50.520Z,96421.34
2022-11-21T21:17:17.041Z,96407.38
2022-11-21T21:19:43.637Z,96412.66
2022-11-21T21:22:10.233Z,96415.47
2022-11-21T21:24:36.749Z,96401.69
2022-11-21T21:27:03.290Z,96412.56
2022-11-21T21:29:30.321Z,96405.47
2022-11-21T21:31:57.518Z,96405.91
2022-11-21T21:34:24.397Z,96411.28
2022-11-21T21:36:51.310Z,96402.19
2022-11-21T21:39:17.962Z,96396.78
2022-11-21T21:41:47.909Z,96395.75
2022-11-21T21:44:14.943Z,96398.19
2022-11-21T21:46:44.995Z,96389.84
2022-11-21T21:49:11.879Z,96401.00
2022-11-21T21:51:38.657Z,96395.25
2022-11-21T21:54:05.468Z,96401.06
2022-11-21T21:56:32.140Z,96405.34
2022-11-21T21:59:01.563Z,96379.41
2022-11-21T22:01:29.068Z,96390.25
2022-11-21T22:03:57.113Z,96374.75
2022-11-21T22:06:23.673Z,96385.44
2022-11-21T22:08:50.379Z,96374.34
2022-11-21T22:11:21.087Z,96380.63
2022-11-21T22:13:50.866Z,96379.38
2022-11-21T22:16:17.553Z,96389.72
2022-11-21T22:18:44.066Z,96391.94
2022-11-21T22:21:14.476Z,96386.88
2022-11-21T22:23:56.472Z,96395.50
2022-11-21T22:26:27.673Z,96396.56
2022-11-21T22:28:54.312Z,96389.19
2022-11-21T22:31:20.882Z,96401.34
2022-11-21T22:33:47.844Z,96399.06
2022-11-21T22:36:15.485Z,96403.28
2022-11-21T22:38:42.497Z,96404.47
2022-11-21T22:41:15.917Z,96401.41
2022-11-21T22:43:42.565Z,96403.91
2022-11-21T22:46:09.964Z,96399.75
2022-11-21T22:48:36.655Z,96396.84
2022-11-21T22:51:03.343Z,96393.25
2022-11-21T22:53:29.909Z,96400.56
2022-11-21T22:56:06.397Z,96397.50
2022-11-21T22:58:33.686Z,96393.72
2022-11-21T23:01:06.077Z,96396.16
2022-11-21T23:03:32.953Z,96396.59
2022-11-21T23:06:00.196Z,96400.25
2022-11-21T23:08:26.721Z,96395.16
2022-11-21T23:10:53.203Z,96396.53
2022-11-21T23:13:19.753Z,96390.25
2022-11-21T23:15:46.295Z,96384.88
2022-11-21T23:18:12.833Z,96384.25
2022-11-21T23:20:39.428Z,96387.41
2022-11-21T23:23:05.941Z,96386.44
2022-11-21T23:25:32.427Z,96384.44
2022-11-21T23:27:59.001Z,96373.78
2022-11-21T23:30:25.502Z,96365.25
2022-11-21T23:32:52.031Z,96355.47
2022-11-21T23:35:18.558Z,96344.69
2022-11-21T23:37:45.029Z,96344.59
2022-11-21T23:40:11.722Z,96344.44
2022-11-21T23:42:38.186Z,96348.94
2022-11-21T23:45:04.935Z,96354.59
2022-11-21T23:47:31.467Z,96339.59
2022-11-21T23:49:58.027Z,96340.63
2022-11-21T23:52:24.554Z,96349.59
2022-11-21T23:54:51.057Z,96351.97
2022-11-21T23:57:17.665Z,96347.25
2022-11-21T23:59:44.165Z,96355.75
